createdAt,value
2022-08-08T00:07:53.434Z,98580
2022-08-08T00:19:53.889Z,98590
2022-08-08T00:32:21.232Z,98580
2022-08-08T00:43:58.807Z,98590
2022-08-08T00:55:54.574Z,98570
2022-08-08T01:07:54.912Z,98570
2022-08-08T01:20:03.306Z,98570
2022-08-08T01:32:12.772Z,98580
2022-08-08T01:43:54.338Z,98580
2022-08-08T01:56:29.218Z,98580
2022-08-08T02:07:53.726Z,98580
2022-08-08T02:20:07.455Z,98590
2022-08-08T02:31:58.673Z,98580
2022-08-08T02:44:37.958Z,98590
2022-08-08T02:55:57.848Z,98590
2022-08-08T03:07:58.063Z,98600
2022-08-08T03:19:53.471Z,98590
2022-08-08T03:32:06.178Z,98600
2022-08-08T03:43:53.460Z,98610
2022-08-08T03:55:57.778Z,98600
2022-08-08T04:07:53.469Z,98610
2022-08-08T04:19:53.553Z,98620
2022-08-08T04:31:58.700Z,98630
2022-08-08T04:43:57.245Z,98640
2022-08-08T04:55:56.264Z,98640
2022-08-08T05:07:53.461Z,98660
2022-08-08T05:20:09.391Z,98650
2022-08-08T05:32:05.000Z,98640
2022-08-08T05:44:03.283Z,98650
2022-08-08T05:56:09.823Z,98640
2022-08-08T06:08:01.946Z,98650
2022-08-08T06:19:53.475Z,98670
2022-08-08T06:32:11.326Z,98680
2022-08-08T06:43:57.144Z,98690
2022-08-08T06:56:00.804Z,98690
2022-08-08T07:07:55.285Z,98700
2022-08-08T07:19:53.500Z,98710
2022-08-08T07:31:53.450Z,98710
2022-08-08T07:43:54.341Z,98710
2022-08-08T07:55:53.516Z,98710
2022-08-08T08:07:54.771Z,98710
2022-08-08T08:19:55.808Z,98710
2022-08-08T08:31:53.992Z,98720
2022-08-08T08:44:13.557Z,98710
2022-08-08T08:55:53.462Z,98710
2022-08-08T09:08:18.300Z,98720
2022-08-08T09:21:58.129Z,98710
2022-08-08T09:31:56.824Z,98710
2022-08-08T09:44:06.322Z,98700
2022-08-08T09:56:05.128Z,98680
2022-08-08T10:08:00.320Z,98670
2022-08-08T10:19:58.256Z,98680
2022-08-08T10:31:54.966Z,98670
2022-08-08T10:43:53.469Z,98660
2022-08-08T10:55:53.489Z,98650
2022-08-08T11:08:30.846Z,98650
2022-08-08T11:19:53.492Z,98640
2022-08-08T11:31:53.463Z,98620
2022-08-08T11:43:53.494Z,98610
2022-08-08T11:55:53.497Z,98610
2022-08-08T12:07:53.465Z,98600
2022-08-08T12:19:53.908Z,98590
2022-08-08T12:31:54.359Z,98590
2022-08-08T12:43:59.724Z,98570
2022-08-08T12:56:17.641Z,98580
2022-08-08T13:08:03.244Z,98570
2022-08-08T13:20:06.297Z,98550
2022-08-08T13:31:53.438Z,98550
2022-08-08T13:43:53.479Z,98550
2022-08-08T13:55:53.483Z,98540
2022-08-08T14:07:59.515Z,98530
2022-08-08T14:19:57.857Z,98530
2022-08-08T14:32:09.478Z,98530
2022-08-08T14:44:09.781Z,98540
2022-08-08T14:56:02.064Z,98540
2022-08-08T15:07:53.714Z,98520
2022-08-08T15:19:53.522Z,98510
2022-08-08T15:32:03.434Z,98510
2022-08-08T15:44:00.547Z,98510
2022-08-08T15:55:53.460Z,98500
2022-08-08T16:07:54.468Z,98490
2022-08-08T16:20:00.015Z,98500
2022-08-08T16:31:53.455Z,98490
2022-08-08T16:43:55.191Z,98490
2022-08-08T16:55:57.913Z,98500
2022-08-08T17:07:53.468Z,98500
2022-08-08T17:19:53.543Z,98500
2022-08-08T17:31:53.458Z,98510
2022-08-08T17:44:00.639Z,98530
2022-08-08T17:56:04.814Z,98530
2022-08-08T18:08:04.213Z,98560
2022-08-08T18:20:36.773Z,98560
2022-08-08T18:31:53.468Z,98590
2022-08-08T18:43:53.509Z,98590
2022-08-08T18:55:53.457Z,98600
2022-08-08T19:07:53.456Z,98630
2022-08-08T19:20:02.165Z,98640
2022-08-08T19:31:53.459Z,98670
2022-08-08T19:44:03.901Z,98680
2022-08-08T19:55:53.466Z,98700
2022-08-08T20:08:28.649Z,98700
2022-08-08T20:19:53.473Z,98710
2022-08-08T20:32:10.644Z,98720
2022-08-08T20:43:53.453Z,98720
2022-08-08T20:55:53.472Z,98720
2022-08-08T21:08:36.978Z,98730
2022-08-08T21:19:58.966Z,98730
2022-08-08T21:31:59.161Z,98740
2022-08-08T21:43:53.468Z,98740
2022-08-08T21:56:26.596Z,98750
2022-08-08T22:07:53.460Z,98760
2022-08-08T22:20:10.779Z,98770
2022-08-08T22:32:02.100Z,98780
2022-08-08T22:44:02.711Z,98780
2022-08-08T22:55:58.454Z,98780
2022-08-08T23:07:57.650Z,98780
2022-08-08T23:19:54.309Z,98780
2022-08-08T23:31:54.252Z,98790
2022-08-08T23:43:56.330Z,98790
2022-08-08T23:55:54.378Z,98780
